createdAt,value
2017-06-19T00:00:11.104Z,19.99
2017-06-19T00:02:43.564Z,19.96
2017-06-19T00:05:16.152Z,19.95
2017-06-19T00:07:48.335Z,19.93
2017-06-19T00:10:21.979Z,19.88
2017-06-19T00:12:54.115Z,19.80
2017-06-19T00:15:26.403Z,19.75
2017-06-19T00:17:58.715Z,19.75
2017-06-19T00:20:31.127Z,19.69
2017-06-19T00:23:09.620Z,19.65
2017-06-19T00:25:41.600Z,19.59
2017-06-19T00:28:13.971Z,19.55
2017-06-19T00:30:46.429Z,19.45
2017-06-19T00:33:18.740Z,19.43
2017-06-19T00:35:51.040Z,19.42
2017-06-19T00:38:23.557Z,19.40
2017-06-19T00:40:56.153Z,19.39
2017-06-19T00:43:28.305Z,19.38
2017-06-19T00:46:00.524Z,19.35
2017-06-19T00:48:33.480Z,19.27
2017-06-19T00:51:05.340Z,19.30
2017-06-19T00:53:37.672Z,19.30
2017-06-19T00:56:10.116Z,19.29
2017-06-19T00:58:42.269Z,19.31
2017-06-19T01:01:14.420Z,19.27
2017-06-19T01:03:47.532Z,19.24
2017-06-19T01:06:20.690Z,19.25
2017-06-19T01:08:52.616Z,19.20
2017-06-19T01:11:24.992Z,19.10
2017-06-19T01:13:57.552Z,19.08
2017-06-19T01:16:29.605Z,19.05
2017-06-19T01:19:01.920Z,19.03
2017-06-19T01:21:34.209Z,19.01
2017-06-19T01:24:06.544Z,19.03
2017-06-19T01:26:38.820Z,18.95
2017-06-19T01:29:11.360Z,18.91
2017-06-19T01:31:43.448Z,18.84
2017-06-19T01:34:16.983Z,18.82
2017-06-19T01:36:49.242Z,18.83
2017-06-19T01:39:21.980Z,18.79
2017-06-19T01:41:54.496Z,18.74
2017-06-19T01:44:27.077Z,18.67
2017-06-19T01:46:59.356Z,18.61
2017-06-19T01:49:31.724Z,18.61
2017-06-19T01:52:04.085Z,18.59
2017-06-19T01:54:36.451Z,18.56
2017-06-19T01:57:08.796Z,18.52
2017-06-19T01:59:41.319Z,18.50
2017-06-19T02:02:13.727Z,18.50
2017-06-19T02:04:46.059Z,18.47
2017-06-19T02:07:18.372Z,18.48
2017-06-19T02:09:50.771Z,18.41
2017-06-19T02:12:23.088Z,18.38
2017-06-19T02:14:55.400Z,18.34
2017-06-19T02:17:27.732Z,18.29
2017-06-19T02:20:00.104Z,18.23
2017-06-19T02:22:32.344Z,18.21
2017-06-19T02:25:04.744Z,18.16
2017-06-19T02:27:38.023Z,18.18
2017-06-19T02:30:10.476Z,18.14
2017-06-19T02:32:42.708Z,18.10
2017-06-19T02:35:15.092Z,18.07
2017-06-19T02:37:47.460Z,18.07
2017-06-19T02:40:19.763Z,18.07
2017-06-19T02:42:52.237Z,18.02
2017-06-19T02:45:24.638Z,17.99
2017-06-19T02:47:57.051Z,17.97
2017-06-19T02:50:29.471Z,17.96
2017-06-19T02:53:01.823Z,17.92
2017-06-19T02:55:34.194Z,17.90
2017-06-19T02:58:06.494Z,17.87
2017-06-19T03:00:38.827Z,17.83
2017-06-19T03:03:11.193Z,17.80
2017-06-19T03:05:43.566Z,17.79
2017-06-19T03:08:15.916Z,17.71
2017-06-19T03:10:48.327Z,17.55
2017-06-19T03:13:20.676Z,17.53
2017-06-19T03:15:53.099Z,17.47
2017-06-19T03:18:25.444Z,17.45
2017-06-19T03:20:57.977Z,17.46
2017-06-19T03:23:30.168Z,17.45
2017-06-19T03:26:02.575Z,17.42
2017-06-19T03:28:34.984Z,17.35
2017-06-19T03:31:07.323Z,17.44
2017-06-19T03:33:39.652Z,17.54
2017-06-19T03:36:12.097Z,17.51
2017-06-19T03:38:44.412Z,17.47
2017-06-19T03:41:16.687Z,17.51
2017-06-19T03:43:48.849Z,17.57
2017-06-19T03:46:21.091Z,17.63
2017-06-19T03:48:53.460Z,17.72
2017-06-19T03:51:25.779Z,17.74
2017-06-19T03:53:58.350Z,17.77
2017-06-19T03:56:30.828Z,17.88
2017-06-19T03:59:02.897Z,18.09
2017-06-19T04:01:35.256Z,18.33
2017-06-19T04:04:07.624Z,18.57
2017-06-19T04:06:40.006Z,18.93
2017-06-19T04:09:12.248Z,19.24
2017-06-19T04:11:44.534Z,19.56
2017-06-19T04:14:16.906Z,20.06
2017-06-19T04:16:49.301Z,21.10
2017-06-19T04:19:21.615Z,22.02
2017-06-19T04:21:54.172Z,22.84
2017-06-19T04:24:26.405Z,23.52
2017-06-19T04:26:59.102Z,24.09
2017-06-19T04:29:31.315Z,24.74
2017-06-19T04:32:03.883Z,25.26
2017-06-19T04:34:36.141Z,25.81
2017-06-19T04:37:08.525Z,26.26
2017-06-19T04:39:40.942Z,26.72
2017-06-19T04:42:13.372Z,26.90
2017-06-19T04:44:45.826Z,27.13
2017-06-19T04:47:18.210Z,27.35
2017-06-19T04:49:50.500Z,27.49
2017-06-19T04:52:23.016Z,27.66
2017-06-19T04:54:55.339Z,27.77
2017-06-19T04:57:28.205Z,28.00
2017-06-19T05:00:00.032Z,28.04
2017-06-19T05:02:32.337Z,28.15
2017-06-19T05:05:04.692Z,28.39
2017-06-19T05:07:38.134Z,28.88
2017-06-19T05:10:10.581Z,29.34
2017-06-19T05:12:42.976Z,29.79
2017-06-19T05:15:15.415Z,29.96
2017-06-19T05:17:47.811Z,30.11
2017-06-19T05:20:20.276Z,30.47
2017-06-19T05:22:52.768Z,31.01
2017-06-19T05:25:25.160Z,31.31
2017-06-19T05:27:57.549Z,31.39
2017-06-19T05:30:29.859Z,31.66
2017-06-19T05:33:02.255Z,31.94
2017-06-19T05:35:34.956Z,32.22
2017-06-19T05:38:07.291Z,32.25
2017-06-19T05:40:39.396Z,32.28
2017-06-19T05:43:11.720Z,32.38
2017-06-19T05:45:44.168Z,32.54
2017-06-19T05:48:16.740Z,32.91
2017-06-19T05:50:48.981Z,33.07
2017-06-19T05:53:21.321Z,33.48
2017-06-19T05:55:53.736Z,33.65
2017-06-19T05:58:27.137Z,33.73
2017-06-19T06:00:59.572Z,33.73
2017-06-19T06:03:31.980Z,33.63
2017-06-19T06:06:04.420Z,33.84
2017-06-19T06:08:36.831Z,34.07
2017-06-19T06:11:09.172Z,34.37
2017-06-19T06:13:41.581Z,34.69
2017-06-19T06:16:13.936Z,34.92
2017-06-19T06:18:47.314Z,35.15
2017-06-19T06:21:19.697Z,35.31
2017-06-19T06:23:52.012Z,35.28
2017-06-19T06:26:24.179Z,35.21
2017-06-19T06:28:56.812Z,34.80
2017-06-19T06:31:29.004Z,35.32
2017-06-19T06:34:01.436Z,35.81
2017-06-19T06:36:33.739Z,35.70
2017-06-19T06:39:07.322Z,35.86
2017-06-19T06:41:40.462Z,36.16
2017-06-19T06:44:13.987Z,36.53
2017-06-19T06:46:46.388Z,36.69
2017-06-19T06:49:18.843Z,36.83
2017-06-19T06:51:51.215Z,37.16
2017-06-19T06:54:23.928Z,37.07
2017-06-19T06:56:55.800Z,37.46
2017-06-19T06:59:28.237Z,37.66
2017-06-19T07:02:00.684Z,37.69
2017-06-19T07:04:33.130Z,37.76
2017-06-19T07:07:05.667Z,37.85
2017-06-19T07:09:38.121Z,37.93
2017-06-19T07:12:10.813Z,37.87
2017-06-19T07:14:43.007Z,37.39
2017-06-19T07:17:15.379Z,37.48
2017-06-19T07:19:47.779Z,37.24
2017-06-19T07:22:20.876Z,37.17
2017-06-19T07:24:52.756Z,37.11
2017-06-19T07:27:24.941Z,37.10
2017-06-19T07:29:57.327Z,36.66
2017-06-19T07:32:29.719Z,37.13
2017-06-19T07:35:02.191Z,37.42
2017-06-19T07:37:34.641Z,37.29
2017-06-19T07:40:07.275Z,37.32
2017-06-19T07:42:39.540Z,37.50
2017-06-19T07:45:12.967Z,37.75
2017-06-19T07:47:45.399Z,37.74
2017-06-19T07:50:17.843Z,37.34
2017-06-19T07:52:50.306Z,37.25
2017-06-19T07:55:22.680Z,37.74
2017-06-19T07:57:55.380Z,38.38
2017-06-19T08:00:27.462Z,38.82
2017-06-19T08:02:59.751Z,38.52
2017-06-19T08:05:32.480Z,38.30
2017-06-19T08:08:04.528Z,38.07
2017-06-19T08:10:36.791Z,38.55
2017-06-19T08:13:09.172Z,38.73
2017-06-19T08:15:41.575Z,38.53
2017-06-19T08:18:13.887Z,38.68
2017-06-19T08:20:46.420Z,39.10
2017-06-19T08:23:25.014Z,39.08
2017-06-19T08:25:57.278Z,38.89
2017-06-19T08:28:29.609Z,37.58
2017-06-19T08:31:02.016Z,38.10
2017-06-19T08:33:34.299Z,37.89
2017-06-19T08:36:06.568Z,36.98
2017-06-19T08:38:39.006Z,37.14
2017-06-19T08:41:11.479Z,37.26
2017-06-19T08:43:43.896Z,37.62
2017-06-19T08:46:16.326Z,37.85
2017-06-19T08:48:48.780Z,38.76
2017-06-19T08:51:21.294Z,39.17
2017-06-19T08:53:53.474Z,38.34
2017-06-19T08:56:25.853Z,38.31
2017-06-19T08:58:58.320Z,38.81
2017-06-19T09:01:30.693Z,38.61
2017-06-19T09:04:02.926Z,39.02
2017-06-19T09:06:35.336Z,39.04
2017-06-19T09:09:07.579Z,38.10
2017-06-19T09:11:39.892Z,37.45
2017-06-19T09:14:12.141Z,37.07
2017-06-19T09:16:44.609Z,36.09
2017-06-19T09:19:16.957Z,36.30
2017-06-19T09:21:49.387Z,35.86
2017-06-19T09:24:21.748Z,37.39
2017-06-19T09:26:54.409Z,37.18
2017-06-19T09:29:27.724Z,37.67
2017-06-19T09:32:01.092Z,37.58
2017-06-19T09:34:33.597Z,38.26
2017-06-19T09:37:06.080Z,39.30
2017-06-19T09:39:38.252Z,39.16
2017-06-19T09:42:10.711Z,38.85
2017-06-19T09:44:42.913Z,38.07
2017-06-19T09:47:15.428Z,37.80
2017-06-19T09:49:47.791Z,38.00
2017-06-19T09:52:20.332Z,38.03
2017-06-19T09:54:52.871Z,37.95
2017-06-19T09:57:25.077Z,37.53
2017-06-19T09:59:57.480Z,37.49
2017-06-19T10:02:29.900Z,37.71
2017-06-19T10:05:02.188Z,37.25
2017-06-19T10:07:34.724Z,37.11
2017-06-19T10:10:07.153Z,36.51
2017-06-19T10:12:39.724Z,35.24
2017-06-19T10:15:11.831Z,34.50
2017-06-19T10:17:45.179Z,33.92
2017-06-19T10:20:17.515Z,34.01
2017-06-19T10:22:50.010Z,34.12
2017-06-19T10:25:22.445Z,33.97
2017-06-19T10:27:54.987Z,33.79
2017-06-19T10:30:27.346Z,34.11
2017-06-19T10:32:59.684Z,34.08
2017-06-19T10:35:32.062Z,34.11
2017-06-19T10:38:04.435Z,34.41
2017-06-19T10:40:36.832Z,34.40
2017-06-19T10:43:09.220Z,34.26
2017-06-19T10:45:41.680Z,34.32
2017-06-19T10:48:14.136Z,34.23
2017-06-19T10:50:46.365Z,34.29
2017-06-19T10:53:18.958Z,34.20
2017-06-19T10:55:51.273Z,34.59
2017-06-19T10:58:23.815Z,34.93
2017-06-19T11:00:56.637Z,34.80
2017-06-19T11:03:29.360Z,35.10
2017-06-19T11:06:01.661Z,35.51
2017-06-19T11:08:34.108Z,35.33
2017-06-19T11:11:06.288Z,35.31
2017-06-19T11:13:38.742Z,35.20
2017-06-19T11:16:11.072Z,35.41
2017-06-19T11:18:43.351Z,35.31
2017-06-19T11:21:15.591Z,35.59
2017-06-19T11:23:48.020Z,36.04
2017-06-19T11:26:20.353Z,35.99
2017-06-19T11:28:52.847Z,36.04
2017-06-19T11:31:25.244Z,36.15
2017-06-19T11:33:57.760Z,36.02
2017-06-19T11:36:30.856Z,36.51
2017-06-19T11:39:03.564Z,36.80
2017-06-19T11:41:35.983Z,36.65
2017-06-19T11:44:08.435Z,36.51
2017-06-19T11:46:40.713Z,36.55
2017-06-19T11:49:13.147Z,36.50
2017-06-19T11:51:45.506Z,36.73
2017-06-19T11:54:17.736Z,36.68
2017-06-19T11:56:49.985Z,37.00
2017-06-19T11:59:22.366Z,36.84
2017-06-19T12:01:54.640Z,36.13
2017-06-19T12:04:26.961Z,35.99
2017-06-19T12:06:59.561Z,36.11
2017-06-19T12:09:31.785Z,35.80
2017-06-19T12:12:04.117Z,35.77
2017-06-19T12:14:36.557Z,35.86
2017-06-19T12:17:08.887Z,36.07
2017-06-19T12:19:41.293Z,35.97
2017-06-19T12:22:13.624Z,35.46
2017-06-19T12:24:46.024Z,35.16
2017-06-19T12:27:18.284Z,35.43
2017-06-19T12:29:51.541Z,35.23
2017-06-19T12:32:24.180Z,35.02
2017-06-19T12:34:56.625Z,34.92
2017-06-19T12:37:28.934Z,35.35
2017-06-19T12:40:02.232Z,35.58
2017-06-19T12:42:34.669Z,35.33
2017-06-19T12:45:06.988Z,35.81
2017-06-19T12:47:39.417Z,35.56
2017-06-19T12:50:11.892Z,35.56
2017-06-19T12:52:44.256Z,35.57
2017-06-19T12:55:16.614Z,35.48
2017-06-19T12:57:48.965Z,35.52
2017-06-19T13:00:21.520Z,35.27
2017-06-19T13:02:53.618Z,34.83
2017-06-19T13:05:26.032Z,35.15
2017-06-19T13:07:58.355Z,35.25
2017-06-19T13:10:30.726Z,35.29
2017-06-19T13:13:03.335Z,35.27
2017-06-19T13:15:35.736Z,35.14
2017-06-19T13:18:07.818Z,35.17
2017-06-19T13:20:40.816Z,35.29
2017-06-19T13:23:12.928Z,35.14
2017-06-19T13:25:45.131Z,35.45
2017-06-19T13:28:17.469Z,35.42
2017-06-19T13:30:50.028Z,35.36
2017-06-19T13:33:22.347Z,35.49
2017-06-19T13:35:55.156Z,35.21
2017-06-19T13:38:27.150Z,34.97
2017-06-19T13:40:59.528Z,35.05
2017-06-19T13:43:31.903Z,35.39
2017-06-19T13:46:05.148Z,35.87
2017-06-19T13:48:37.850Z,36.25
2017-06-19T13:51:10.288Z,36.46
2017-06-19T13:53:43.565Z,36.37
2017-06-19T13:56:16.183Z,35.34
2017-06-19T13:58:48.704Z,35.06
2017-06-19T14:01:20.960Z,34.87
2017-06-19T14:03:53.295Z,34.76
2017-06-19T14:06:26.855Z,34.75
2017-06-19T14:08:59.367Z,34.85
2017-06-19T14:11:31.723Z,34.90
2017-06-19T14:14:04.160Z,34.66
2017-06-19T14:16:36.780Z,34.62
2017-06-19T14:19:09.169Z,34.17
2017-06-19T14:21:41.876Z,34.31
2017-06-19T14:24:14.011Z,34.51
2017-06-19T14:26:46.471Z,34.33
2017-06-19T14:29:18.927Z,34.02
2017-06-19T14:31:52.264Z,34.12
2017-06-19T14:34:24.892Z,34.01
2017-06-19T14:36:57.341Z,33.87
2017-06-19T14:39:29.652Z,33.72
2017-06-19T14:42:02.063Z,33.98
2017-06-19T14:44:34.484Z,33.93
2017-06-19T14:47:07.244Z,33.94
2017-06-19T14:49:46.252Z,33.94
2017-06-19T14:52:18.706Z,33.82
2017-06-19T14:54:51.042Z,33.74
2017-06-19T14:57:23.594Z,33.81
2017-06-19T14:59:55.883Z,33.73
2017-06-19T15:02:28.312Z,33.55
2017-06-19T15:05:00.696Z,33.73
2017-06-19T15:07:33.343Z,33.72
2017-06-19T15:10:05.489Z,33.52
2017-06-19T15:12:37.860Z,33.35
2017-06-19T15:15:10.288Z,33.37
2017-06-19T15:17:42.648Z,33.43
2017-06-19T15:20:15.004Z,33.33
2017-06-19T15:22:47.583Z,33.24
2017-06-19T15:25:20.211Z,33.34
2017-06-19T15:27:52.664Z,33.40
2017-06-19T15:30:25.132Z,33.35
2017-06-19T15:32:57.494Z,33.36
2017-06-19T15:35:30.119Z,33.26
2017-06-19T15:38:03.143Z,33.23
2017-06-19T15:40:35.507Z,33.05
2017-06-19T15:43:07.940Z,32.58
2017-06-19T15:45:40.606Z,32.48
2017-06-19T15:48:12.752Z,32.58
2017-06-19T15:50:46.164Z,32.71
2017-06-19T15:53:18.591Z,32.61
2017-06-19T15:55:50.895Z,32.62
2017-06-19T15:58:23.279Z,32.71
2017-06-19T16:00:55.696Z,32.73
2017-06-19T16:03:28.100Z,32.87
2017-06-19T16:06:00.371Z,32.85
2017-06-19T16:08:32.924Z,32.63
2017-06-19T16:11:05.501Z,32.59
2017-06-19T16:13:37.616Z,32.66
2017-06-19T16:16:09.996Z,32.56
2017-06-19T16:18:42.456Z,32.54
2017-06-19T16:21:14.751Z,32.31
2017-06-19T16:23:47.235Z,32.29
2017-06-19T16:26:19.537Z,32.22
2017-06-19T16:28:52.047Z,32.26
2017-06-19T16:31:24.320Z,32.34
2017-06-19T16:33:56.808Z,32.37
2017-06-19T16:36:29.165Z,32.37
2017-06-19T16:39:01.556Z,32.34
2017-06-19T16:41:33.964Z,32.34
2017-06-19T16:44:06.516Z,32.25
2017-06-19T16:46:38.956Z,32.24
2017-06-19T16:49:11.385Z,32.25
2017-06-19T16:51:43.798Z,32.22
2017-06-19T16:54:16.250Z,32.29
2017-06-19T16:56:48.689Z,32.16
2017-06-19T16:59:21.309Z,32.21
2017-06-19T17:01:53.404Z,32.20
2017-06-19T17:04:25.767Z,32.09
2017-06-19T17:06:58.103Z,31.97
2017-06-19T17:09:30.415Z,32.05
2017-06-19T17:12:02.800Z,31.92
2017-06-19T17:14:35.194Z,31.91
2017-06-19T17:17:07.711Z,31.91
2017-06-19T17:19:40.007Z,31.88
2017-06-19T17:22:12.222Z,31.80
2017-06-19T17:24:44.651Z,31.70
2017-06-19T17:27:16.972Z,31.45
2017-06-19T17:29:49.304Z,31.45
2017-06-19T17:32:21.621Z,31.46
2017-06-19T17:34:54.137Z,31.47
2017-06-19T17:37:26.252Z,31.43
2017-06-19T17:39:58.571Z,31.39
2017-06-19T17:42:30.736Z,31.36
2017-06-19T17:45:03.108Z,31.33
2017-06-19T17:47:35.379Z,31.25
2017-06-19T17:50:08.824Z,31.22
2017-06-19T17:52:41.149Z,31.20
2017-06-19T17:55:13.501Z,31.17
2017-06-19T17:57:45.925Z,31.16
2017-06-19T18:00:18.221Z,31.14
2017-06-19T18:02:50.583Z,31.14
2017-06-19T18:05:22.903Z,31.12
2017-06-19T18:07:55.223Z,31.04
2017-06-19T18:10:27.608Z,30.95
2017-06-19T18:12:59.975Z,30.90
2017-06-19T18:15:32.359Z,30.88
2017-06-19T18:18:04.780Z,30.86
2017-06-19T18:20:37.148Z,30.83
2017-06-19T18:23:09.692Z,30.77
2017-06-19T18:25:41.977Z,30.76
2017-06-19T18:28:14.313Z,30.67
2017-06-19T18:30:47.476Z,30.66
2017-06-19T18:33:20.021Z,30.64
2017-06-19T18:35:52.381Z,30.62
2017-06-19T18:38:24.744Z,30.55
2017-06-19T18:40:57.358Z,30.52
2017-06-19T18:43:29.644Z,30.43
2017-06-19T18:46:02.136Z,30.37
2017-06-19T18:48:34.721Z,30.32
2017-06-19T18:51:07.103Z,30.31
2017-06-19T18:53:39.776Z,30.25
2017-06-19T18:56:11.896Z,30.19
2017-06-19T18:58:44.424Z,30.11
2017-06-19T19:01:16.914Z,30.03
2017-06-19T19:03:49.384Z,29.97
2017-06-19T19:06:21.773Z,29.87
2017-06-19T19:08:54.063Z,29.79
2017-06-19T19:11:26.429Z,29.68
2017-06-19T19:13:58.802Z,29.52
2017-06-19T19:16:31.284Z,29.35
2017-06-19T19:19:03.632Z,29.21
2017-06-19T19:21:36.136Z,29.04
2017-06-19T19:24:08.445Z,28.82
2017-06-19T19:26:41.358Z,28.68
2017-06-19T19:29:13.213Z,28.54
2017-06-19T19:31:45.725Z,28.41
2017-06-19T19:34:18.054Z,28.29
2017-06-19T19:36:50.665Z,28.17
2017-06-19T19:39:22.673Z,28.04
2017-06-19T19:41:55.098Z,27.82
2017-06-19T19:44:27.699Z,27.67
2017-06-19T19:46:59.971Z,27.52
2017-06-19T19:49:32.270Z,27.45
2017-06-19T19:52:04.616Z,27.42
2017-06-19T19:54:36.977Z,27.34
2017-06-19T19:57:09.480Z,27.15
2017-06-19T19:59:41.664Z,27.06
2017-06-19T20:02:15.061Z,27.03
2017-06-19T20:04:47.388Z,26.94
2017-06-19T20:07:19.943Z,26.87
2017-06-19T20:09:52.309Z,26.75
2017-06-19T20:12:24.725Z,26.64
2017-06-19T20:14:57.071Z,26.56
2017-06-19T20:17:29.511Z,26.48
2017-06-19T20:20:01.788Z,26.42
2017-06-19T20:22:34.080Z,26.35
2017-06-19T20:25:06.347Z,26.26
2017-06-19T20:27:38.840Z,26.14
2017-06-19T20:30:10.900Z,26.01
2017-06-19T20:32:43.149Z,25.88
2017-06-19T20:35:15.437Z,25.76
2017-06-19T20:37:47.651Z,25.72
2017-06-19T20:40:19.909Z,25.60
2017-06-19T20:42:52.285Z,25.55
2017-06-19T20:45:24.616Z,25.49
2017-06-19T20:47:56.919Z,25.46
2017-06-19T20:50:29.052Z,25.43
2017-06-19T20:53:01.475Z,25.36
2017-06-19T20:55:33.668Z,25.29
2017-06-19T20:58:06.078Z,25.25
2017-06-19T21:00:38.226Z,25.19
2017-06-19T21:03:10.512Z,25.15
2017-06-19T21:05:42.803Z,25.10
2017-06-19T21:08:15.327Z,24.98
2017-06-19T21:10:47.539Z,24.87
2017-06-19T21:13:19.881Z,24.84
2017-06-19T21:15:52.331Z,24.78
2017-06-19T21:18:25.052Z,24.73
2017-06-19T21:20:57.182Z,24.63
2017-06-19T21:23:29.708Z,24.55
2017-06-19T21:26:02.072Z,24.49
2017-06-19T21:28:34.508Z,24.44
2017-06-19T21:31:06.811Z,24.37
2017-06-19T21:33:39.118Z,24.20
2017-06-19T21:36:11.460Z,24.11
2017-06-19T21:38:43.759Z,24.04
2017-06-19T21:41:16.208Z,23.98
2017-06-19T21:43:48.429Z,23.91
2017-06-19T21:46:20.652Z,23.85
2017-06-19T21:48:53.060Z,23.76
2017-06-19T21:51:25.428Z,23.67
2017-06-19T21:53:57.975Z,23.58
2017-06-19T21:56:30.472Z,23.54
2017-06-19T21:59:02.629Z,23.49
2017-06-19T22:01:34.849Z,23.43
2017-06-19T22:04:07.284Z,23.39
2017-06-19T22:06:39.689Z,23.27
2017-06-19T22:09:12.036Z,23.21
2017-06-19T22:11:45.117Z,23.22
2017-06-19T22:14:17.659Z,23.18
2017-06-19T22:16:49.956Z,23.10
2017-06-19T22:19:22.196Z,23.06
2017-06-19T22:22:00.714Z,22.92
2017-06-19T22:24:33.068Z,22.90
2017-06-19T22:27:05.498Z,22.82
2017-06-19T22:29:37.717Z,22.77
2017-06-19T22:32:10.137Z,22.73
2017-06-19T22:34:42.479Z,22.66
2017-06-19T22:37:14.700Z,22.65
2017-06-19T22:39:47.163Z,22.57
2017-06-19T22:42:19.555Z,22.55
2017-06-19T22:44:52.063Z,22.54
2017-06-19T22:47:24.464Z,22.51
2017-06-19T22:49:56.848Z,22.48
2017-06-19T22:52:29.068Z,22.45
2017-06-19T22:55:01.496Z,22.44
2017-06-19T22:57:34.620Z,22.40
2017-06-19T23:00:06.484Z,22.38
2017-06-19T23:02:38.903Z,22.35
2017-06-19T23:05:11.324Z,22.30
2017-06-19T23:07:43.679Z,22.28
2017-06-19T23:10:16.124Z,22.21
2017-06-19T23:12:49.276Z,22.13
2017-06-19T23:15:21.912Z,22.09
2017-06-19T23:17:54.128Z,22.01
2017-06-19T23:20:26.473Z,21.92
2017-06-19T23:22:58.708Z,21.91
2017-06-19T23:25:31.034Z,21.85
2017-06-19T23:28:03.391Z,21.80
2017-06-19T23:30:36.808Z,21.71
2017-06-19T23:33:09.223Z,21.74
2017-06-19T23:35:41.686Z,21.71
2017-06-19T23:38:13.989Z,21.63
2017-06-19T23:40:46.451Z,21.58
2017-06-19T23:43:18.813Z,21.52
2017-06-19T23:45:51.288Z,21.42
2017-06-19T23:48:24.367Z,21.34
2017-06-19T23:50:57.208Z,21.29
2017-06-19T23:53:29.595Z,21.09
2017-06-19T23:56:01.972Z,21.13
2017-06-19T23:58:34.313Z,21.12
